sensor_id;sensor_type;location;lat;lon;timestamp;P1;P2;P0
76101;PMS7003;64830;46.910;6.354;2023-07-28T00:01:47;3.00;2.25;2.00
76101;PMS7003;64830;46.910;6.354;2023-07-28T00:04:13;1.50;1.50;1.00
76101;PMS7003;64830;46.910;6.354;2023-07-28T00:06:39;3.00;3.00;3.00
76101;PMS7003;64830;46.910;6.354;2023-07-28T00:09:04;5.00;3.25;2.50
76101;PMS7003;64830;46.910;6.354;2023-07-28T00:11:30;3.00;3.00;2.00
76101;PMS7003;64830;46.910;6.354;2023-07-28T00:13:55;4.00;3.00;3.00
76101;PMS7003;64830;46.910;6.354;2023-07-28T00:16:21;4.00;3.00;2.00
76101;PMS7003;64830;46.910;6.354;2023-07-28T00:18:48;3.25;3.25;3.00
76101;PMS7003;64830;46.910;6.354;2023-07-28T00:21:13;3.00;3.00;2.00
76101;PMS7003;64830;46.910;6.354;2023-07-28T00:23:39;3.50;3.50;3.00
76101;PMS7003;64830;46.910;6.354;2023-07-28T00:26:05;2.50;2.50;2.00
76101;PMS7003;64830;46.910;6.354;2023-07-28T00:28:31;3.50;3.50;3.00
76101;PMS7003;64830;46.910;6.354;2023-07-28T00:30:57;3.25;3.25;2.75
76101;PMS7003;64830;46.910;6.354;2023-07-28T00:33:22;3.25;3.25;3.00
76101;PMS7003;64830;46.910;6.354;2023-07-28T00:35:48;5.00;3.25;2.50
76101;PMS7003;64830;46.910;6.354;2023-07-28T00:38:14;2.50;2.50;2.00
76101;PMS7003;64830;46.910;6.354;2023-07-28T00:40:39;4.00;3.50;2.25
76101;PMS7003;64830;46.910;6.354;2023-07-28T00:43:05;3.50;3.00;2.00
76101;PMS7003;64830;46.910;6.354;2023-07-28T00:45:32;3.00;3.00;2.00
76101;PMS7003;64830;46.910;6.354;2023-07-28T00:47:58;3.25;3.00;3.00
76101;PMS7003;64830;46.910;6.354;2023-07-28T00:50:24;4.00;3.00;3.00
76101;PMS7003;64830;46.910;6.354;2023-07-28T00:52:51;4.25;3.75;3.00
76101;PMS7003;64830;46.910;6.354;2023-07-28T00:55:16;4.00;3.00;2.00
76101;PMS7003;64830;46.910;6.354;2023-07-28T00:57:42;4.75;4.75;3.50
76101;PMS7003;64830;46.910;6.354;2023-07-28T01:00:08;4.25;4.25;3.25
76101;PMS7003;64830;46.910;6.354;2023-07-28T01:02:34;5.00;4.00;2.75
76101;PMS7003;64830;46.910;6.354;2023-07-28T01:05:01;4.50;3.25;2.50
76101;PMS7003;64830;46.910;6.354;2023-07-28T01:07:30;4.00;3.00;3.00
76101;PMS7003;64830;46.910;6.354;2023-07-28T01:10:14;5.00;3.75;2.50
76101;PMS7003;64830;46.910;6.354;2023-07-28T01:12:43;3.00;3.00;2.00
76101;PMS7003;64830;46.910;6.354;2023-07-28T01:15:09;4.00;4.00;3.50
76101;PMS7003;64830;46.910;6.354;2023-07-28T01:17:35;4.00;4.00;3.00
76101;PMS7003;64830;46.910;6.354;2023-07-28T01:20:00;3.00;3.00;2.75
76101;PMS7003;64830;46.910;6.354;2023-07-28T01:28:03;2.50;2.50;2.00
76101;PMS7003;64830;46.910;6.354;2023-07-28T01:30:29;3.25;2.00;2.00
76101;PMS7003;64830;46.910;6.354;2023-07-28T01:32:55;6.00;5.00;2.25
76101;PMS7003;64830;46.910;6.354;2023-07-28T01:35:22;3.25;3.25;3.00
76101;PMS7003;64830;46.910;6.354;2023-07-28T01:37:48;4.00;3.00;2.00
76101;PMS7003;64830;46.910;6.354;2023-07-28T01:40:15;5.25;4.00;3.00
76101;PMS7003;64830;46.910;6.354;2023-07-28T01:42:44;4.00;3.00;2.75
76101;PMS7003;64830;46.910;6.354;2023-07-28T01:45:09;3.75;2.50;2.00
76101;PMS7003;64830;46.910;6.354;2023-07-28T01:47:35;3.75;3.75;3.00
76101;PMS7003;64830;46.910;6.354;2023-07-28T01:50:00;4.00;3.00;2.00
76101;PMS7003;64830;46.910;6.354;2023-07-28T01:52:26;3.75;3.00;2.00
76101;PMS7003;64830;46.910;6.354;2023-07-28T01:54:51;3.00;3.00;3.00
76101;PMS7003;64830;46.910;6.354;2023-07-28T01:57:17;2.25;2.00;2.00
76101;PMS7003;64830;46.910;6.354;2023-07-28T01:59:43;4.50;4.50;3.00
76101;PMS7003;64830;46.910;6.354;2023-07-28T02:02:09;4.50;4.00;3.00
76101;PMS7003;64830;46.910;6.354;2023-07-28T02:04:34;2.75;2.75;2.00
76101;PMS7003;64830;46.910;6.354;2023-07-28T02:07:00;3.00;3.00;2.25
76101;PMS7003;64830;46.910;6.354;2023-07-28T02:09:25;4.25;3.75;2.25
76101;PMS7003;64830;46.910;6.354;2023-07-28T02:11:51;3.00;3.00;3.00
76101;PMS7003;64830;46.910;6.354;2023-07-28T02:14:17;4.00;2.75;2.00
76101;PMS7003;64830;46.910;6.354;2023-07-28T02:16:43;3.00;3.00;2.00
76101;PMS7003;64830;46.910;6.354;2023-07-28T02:19:08;4.00;4.00;3.25
76101;PMS7003;64830;46.910;6.354;2023-07-28T02:21:34;2.00;2.00;2.00
76101;PMS7003;64830;46.910;6.354;2023-07-28T02:23:59;4.50;3.25;2.00
76101;PMS7003;64830;46.910;6.354;2023-07-28T02:26:25;2.25;2.25;2.00
76101;PMS7003;64830;46.910;6.354;2023-07-28T02:28:50;3.00;2.75;2.25
76101;PMS7003;64830;46.910;6.354;2023-07-28T02:31:16;3.00;2.25;2.00
76101;PMS7003;64830;46.910;6.354;2023-07-28T02:33:41;4.50;3.75;3.00
76101;PMS7003;64830;46.910;6.354;2023-07-28T02:36:07;1.00;1.00;1.00
76101;PMS7003;64830;46.910;6.354;2023-07-28T02:38:32;3.00;3.00;2.00
76101;PMS7003;64830;46.910;6.354;2023-07-28T02:40:57;3.00;3.00;2.75
76101;PMS7003;64830;46.910;6.354;2023-07-28T02:43:23;3.75;2.75;2.00
76101;PMS7003;64830;46.910;6.354;2023-07-28T02:45:53;3.50;3.50;3.00
76101;PMS7003;64830;46.910;6.354;2023-07-28T02:48:19;3.00;3.00;2.00
76101;PMS7003;64830;46.910;6.354;2023-07-28T02:50:46;4.50;3.00;2.00
76101;PMS7003;64830;46.910;6.354;2023-07-28T02:53:12;2.25;2.25;2.00
76101;PMS7003;64830;46.910;6.354;2023-07-28T02:55:45;3.00;3.00;2.25
76101;PMS7003;64830;46.910;6.354;2023-07-28T02:58:12;3.00;3.00;2.00
76101;PMS7003;64830;46.910;6.354;2023-07-28T03:00:38;2.25;2.00;2.00
76101;PMS7003;64830;46.910;6.354;2023-07-28T03:03:04;2.75;2.00;2.00
76101;PMS7003;64830;46.910;6.354;2023-07-28T03:05:31;2.00;2.00;2.00
76101;PMS7003;64830;46.910;6.354;2023-07-28T03:07:57;4.00;3.25;2.75
76101;PMS7003;64830;46.910;6.354;2023-07-28T03:10:22;2.00;2.00;2.00
76101;PMS7003;64830;46.910;6.354;2023-07-28T03:12:48;3.00;3.00;2.25
76101;PMS7003;64830;46.910;6.354;2023-07-28T03:15:13;4.00;2.75;1.25
76101;PMS7003;64830;46.910;6.354;2023-07-28T03:17:39;1.75;1.75;1.50
76101;PMS7003;64830;46.910;6.354;2023-07-28T03:20:04;3.00;3.00;2.00
76101;PMS7003;64830;46.910;6.354;2023-07-28T03:22:31;2.00;2.00;2.00
76101;PMS7003;64830;46.910;6.354;2023-07-28T03:24:56;2.75;2.00;1.75
76101;PMS7003;64830;46.910;6.354;2023-07-28T03:27:22;2.25;2.25;2.00
76101;PMS7003;64830;46.910;6.354;2023-07-28T03:29:47;3.00;3.00;2.50
76101;PMS7003;64830;46.910;6.354;2023-07-28T03:32:13;3.25;2.00;2.00
76101;PMS7003;64830;46.910;6.354;2023-07-28T03:34:38;2.00;2.00;1.75
76101;PMS7003;64830;46.910;6.354;2023-07-28T03:37:03;3.00;3.00;2.25
76101;PMS7003;64830;46.910;6.354;2023-07-28T03:39:29;3.00;3.00;2.50
76101;PMS7003;64830;46.910;6.354;2023-07-28T03:41:56;2.25;2.25;2.00
76101;PMS7003;64830;46.910;6.354;2023-07-28T03:44:21;2.75;2.75;2.00
76101;PMS7003;64830;46.910;6.354;2023-07-28T03:46:47;3.00;3.00;3.00
76101;PMS7003;64830;46.910;6.354;2023-07-28T03:49:13;3.25;2.50;2.25
76101;PMS7003;64830;46.910;6.354;2023-07-28T03:51:38;3.00;3.00;2.00
76101;PMS7003;64830;46.910;6.354;2023-07-28T03:54:03;3.00;2.25;2.00
76101;PMS7003;64830;46.910;6.354;2023-07-28T03:56:29;2.00;2.00;2.00
76101;PMS7003;64830;46.910;6.354;2023-07-28T03:58:54;2.75;2.75;2.00
76101;PMS7003;64830;46.910;6.354;2023-07-28T04:01:20;3.00;2.00;2.00
76101;PMS7003;64830;46.910;6.354;2023-07-28T04:03:46;3.75;3.00;2.25
76101;PMS7003;64830;46.910;6.354;2023-07-28T04:06:13;2.50;2.00;2.00
76101;PMS7003;64830;46.910;6.354;2023-07-28T04:08:41;1.50;1.50;1.25
76101;PMS7003;64830;46.910;6.354;2023-07-28T04:11:07;3.00;3.00;2.00
76101;PMS7003;64830;46.910;6.354;2023-07-28T04:13:35;3.00;3.00;2.00
76101;PMS7003;64830;46.910;6.354;2023-07-28T04:16:01;2.00;2.00;1.50
76101;PMS7003;64830;46.910;6.354;2023-07-28T04:18:27;5.00;4.00;3.00
76101;PMS7003;64830;46.910;6.354;2023-07-28T04:20:52;3.50;2.25;2.00
76101;PMS7003;64830;46.910;6.354;2023-07-28T04:23:18;4.00;3.00;2.25
76101;PMS7003;64830;46.910;6.354;2023-07-28T04:25:43;3.00;3.00;2.00
76101;PMS7003;64830;46.910;6.354;2023-07-28T04:28:09;2.25;1.50;1.25
76101;PMS7003;64830;46.910;6.354;2023-07-28T04:30:34;3.00;3.00;3.00
76101;PMS7003;64830;46.910;6.354;2023-07-28T04:33:00;3.00;3.00;3.00
76101;PMS7003;64830;46.910;6.354;2023-07-28T04:35:25;2.25;2.25;2.00
76101;PMS7003;64830;46.910;6.354;2023-07-28T04:37:50;3.00;2.75;2.00
76101;PMS7003;64830;46.910;6.354;2023-07-28T04:40:16;3.00;3.00;2.00
76101;PMS7003;64830;46.910;6.354;2023-07-28T04:42:41;3.50;2.75;1.75
76101;PMS7003;64830;46.910;6.354;2023-07-28T04:45:07;4.75;3.00;2.00
76101;PMS7003;64830;46.910;6.354;2023-07-28T04:47:33;0.00;0.00;0.00
76101;PMS7003;64830;46.910;6.354;2023-07-28T04:49:58;3.00;3.00;2.25
76101;PMS7003;64830;46.910;6.354;2023-07-28T04:52:24;5.00;4.50;3.00
76101;PMS7003;64830;46.910;6.354;2023-07-28T04:54:49;3.25;3.25;3.00
76101;PMS7003;64830;46.910;6.354;2023-07-28T04:57:14;3.00;3.00;2.00
76101;PMS7003;64830;46.910;6.354;2023-07-28T04:59:40;3.00;3.00;2.00
76101;PMS7003;64830;46.910;6.354;2023-07-28T05:02:05;2.50;2.50;2.00
76101;PMS7003;64830;46.910;6.354;2023-07-28T05:04:31;3.75;3.00;2.00
76101;PMS7003;64830;46.910;6.354;2023-07-28T05:06:57;4.50;3.00;2.00
76101;PMS7003;64830;46.910;6.354;2023-07-28T05:09:22;4.00;4.00;3.00
76101;PMS7003;64830;46.910;6.354;2023-07-28T05:11:47;3.25;2.50;2.25
76101;PMS7003;64830;46.910;6.354;2023-07-28T05:14:13;3.50;3.50;3.00
76101;PMS7003;64830;46.910;6.354;2023-07-28T05:16:38;2.50;2.50;2.00
76101;PMS7003;64830;46.910;6.354;2023-07-28T05:19:07;2.00;2.00;2.00
76101;PMS7003;64830;46.910;6.354;2023-07-28T05:21:32;3.50;3.00;2.00
76101;PMS7003;64830;46.910;6.354;2023-07-28T05:23:58;3.00;3.00;2.00
76101;PMS7003;64830;46.910;6.354;2023-07-28T05:26:23;3.00;3.00;2.50
76101;PMS7003;64830;46.910;6.354;2023-07-28T05:28:49;4.00;2.75;2.00
76101;PMS7003;64830;46.910;6.354;2023-07-28T05:31:15;4.00;3.25;2.50
76101;PMS7003;64830;46.910;6.354;2023-07-28T05:33:40;3.00;3.00;3.00
76101;PMS7003;64830;46.910;6.354;2023-07-28T05:36:06;4.00;2.75;2.00
76101;PMS7003;64830;46.910;6.354;2023-07-28T05:38:31;4.50;4.50;4.00
76101;PMS7003;64830;46.910;6.354;2023-07-28T05:41:00;2.00;1.75;1.75
76101;PMS7003;64830;46.910;6.354;2023-07-28T05:43:28;4.25;4.00;3.00
76101;PMS7003;64830;46.910;6.354;2023-07-28T05:45:57;6.00;5.00;4.00
76101;PMS7003;64830;46.910;6.354;2023-07-28T05:48:23;2.50;2.50;2.25
76101;PMS7003;64830;46.910;6.354;2023-07-28T05:50:48;5.25;3.00;2.00
76101;PMS7003;64830;46.910;6.354;2023-07-28T05:53:16;2.50;2.50;1.75
76101;PMS7003;64830;46.910;6.354;2023-07-28T05:55:41;5.75;3.25;2.25
76101;PMS7003;64830;46.910;6.354;2023-07-28T05:58:07;4.00;4.00;3.00
76101;PMS7003;64830;46.910;6.354;2023-07-28T06:00:32;3.75;3.00;2.00
76101;PMS7003;64830;46.910;6.354;2023-07-28T06:02:57;5.00;4.00;3.00
76101;PMS7003;64830;46.910;6.354;2023-07-28T06:05:23;2.75;2.75;2.25
76101;PMS7003;64830;46.910;6.354;2023-07-28T06:07:48;2.50;1.75;1.25
76101;PMS7003;64830;46.910;6.354;2023-07-28T06:10:14;1.50;1.50;1.25
76101;PMS7003;64830;46.910;6.354;2023-07-28T06:12:39;4.00;2.50;1.50
76101;PMS7003;64830;46.910;6.354;2023-07-28T06:15:05;4.75;4.75;3.75
76101;PMS7003;64830;46.910;6.354;2023-07-28T06:17:30;1.75;1.75;1.75
76101;PMS7003;64830;46.910;6.354;2023-07-28T06:19:56;3.00;3.00;2.00
76101;PMS7003;64830;46.910;6.354;2023-07-28T06:22:21;3.75;3.75;2.75
76101;PMS7003;64830;46.910;6.354;2023-07-28T06:24:46;4.75;4.75;3.50
76101;PMS7003;64830;46.910;6.354;2023-07-28T06:27:12;6.00;5.00;3.50
76101;PMS7003;64830;46.910;6.354;2023-07-28T06:29:37;9.00;6.25;4.00
76101;PMS7003;64830;46.910;6.354;2023-07-28T06:32:03;3.00;3.00;3.00
76101;PMS7003;64830;46.910;6.354;2023-07-28T06:34:28;3.25;3.00;3.00
76101;PMS7003;64830;46.910;6.354;2023-07-28T06:36:54;3.00;3.00;2.00
76101;PMS7003;64830;46.910;6.354;2023-07-28T06:39:19;4.00;4.00;2.00
76101;PMS7003;64830;46.910;6.354;2023-07-28T06:41:45;4.00;2.25;2.00
76101;PMS7003;64830;46.910;6.354;2023-07-28T06:44:10;4.50;1.75;1.50
76101;PMS7003;64830;46.910;6.354;2023-07-28T06:46:35;2.25;2.25;2.00
76101;PMS7003;64830;46.910;6.354;2023-07-28T06:49:01;2.00;2.00;1.00
76101;PMS7003;64830;46.910;6.354;2023-07-28T06:51:26;2.75;1.75;1.00
76101;PMS7003;64830;46.910;6.354;2023-07-28T06:53:52;4.00;4.00;3.50
76101;PMS7003;64830;46.910;6.354;2023-07-28T06:56:17;4.00;2.75;2.00
76101;PMS7003;64830;46.910;6.354;2023-07-28T06:58:43;4.00;3.00;2.00
76101;PMS7003;64830;46.910;6.354;2023-07-28T07:01:08;4.00;3.00;2.50
76101;PMS7003;64830;46.910;6.354;2023-07-28T07:03:36;3.25;3.25;3.00
76101;PMS7003;64830;46.910;6.354;2023-07-28T07:06:01;4.25;3.50;3.00
76101;PMS7003;64830;46.910;6.354;2023-07-28T07:08:27;6.00;6.00;4.75
76101;PMS7003;64830;46.910;6.354;2023-07-28T07:10:52;3.75;3.75;3.25
76101;PMS7003;64830;46.910;6.354;2023-07-28T07:13:18;6.25;4.75;4.00
76101;PMS7003;64830;46.910;6.354;2023-07-28T07:15:44;5.00;4.25;3.00
76101;PMS7003;64830;46.910;6.354;2023-07-28T07:18:10;3.75;3.25;2.00
76101;PMS7003;64830;46.910;6.354;2023-07-28T07:20:36;5.50;4.00;3.00
76101;PMS7003;64830;46.910;6.354;2023-07-28T07:23:03;3.00;2.00;2.00
76101;PMS7003;64830;46.910;6.354;2023-07-28T07:25:29;2.75;2.75;2.75
76101;PMS7003;64830;46.910;6.354;2023-07-28T07:27:54;0.00;0.00;0.00
76101;PMS7003;64830;46.910;6.354;2023-07-28T07:30:20;3.00;2.25;2.00
76101;PMS7003;64830;46.910;6.354;2023-07-28T07:32:45;2.75;2.75;2.00
76101;PMS7003;64830;46.910;6.354;2023-07-28T07:35:11;3.00;3.00;2.00
76101;PMS7003;64830;46.910;6.354;2023-07-28T07:37:37;2.00;2.00;2.00
76101;PMS7003;64830;46.910;6.354;2023-07-28T07:40:03;5.25;4.00;3.00
76101;PMS7003;64830;46.910;6.354;2023-07-28T07:42:41;2.00;2.00;2.00
76101;PMS7003;64830;46.910;6.354;2023-07-28T07:45:10;5.00;4.00;3.00
76101;PMS7003;64830;46.910;6.354;2023-07-28T07:47:36;4.00;3.75;3.00
76101;PMS7003;64830;46.910;6.354;2023-07-28T07:50:02;2.00;2.00;2.00
76101;PMS7003;64830;46.910;6.354;2023-07-28T07:52:28;3.00;3.00;1.75
76101;PMS7003;64830;46.910;6.354;2023-07-28T07:54:53;3.75;3.75;3.00
76101;PMS7003;64830;46.910;6.354;2023-07-28T07:57:19;4.00;3.75;3.50
76101;PMS7003;64830;46.910;6.354;2023-07-28T07:59:44;4.75;3.50;2.75
76101;PMS7003;64830;46.910;6.354;2023-07-28T08:02:09;4.00;4.00;3.75
76101;PMS7003;64830;46.910;6.354;2023-07-28T08:04:35;5.00;5.00;2.75
76101;PMS7003;64830;46.910;6.354;2023-07-28T08:07:01;3.00;3.00;3.00
76101;PMS7003;64830;46.910;6.354;2023-07-28T08:09:29;3.25;3.25;2.75
76101;PMS7003;64830;46.910;6.354;2023-07-28T08:11:55;3.00;3.00;2.00
76101;PMS7003;64830;46.910;6.354;2023-07-28T08:14:20;4.00;4.00;2.50
76101;PMS7003;64830;46.910;6.354;2023-07-28T08:16:46;3.50;3.50;2.75
76101;PMS7003;64830;46.910;6.354;2023-07-28T08:19:11;3.25;3.25;3.00
76101;PMS7003;64830;46.910;6.354;2023-07-28T08:21:37;3.00;2.50;1.25
76101;PMS7003;64830;46.910;6.354;2023-07-28T08:24:03;3.00;2.00;2.00
76101;PMS7003;64830;46.910;6.354;2023-07-28T08:26:29;3.00;3.00;3.00
76101;PMS7003;64830;46.910;6.354;2023-07-28T08:28:55;3.00;3.00;2.25
76101;PMS7003;64830;46.910;6.354;2023-07-28T08:31:20;4.50;3.75;3.00
76101;PMS7003;64830;46.910;6.354;2023-07-28T08:33:46;4.75;4.75;3.00
76101;PMS7003;64830;46.910;6.354;2023-07-28T08:36:12;4.00;4.00;2.00
76101;PMS7003;64830;46.910;6.354;2023-07-28T08:38:37;5.00;4.00;3.00
76101;PMS7003;64830;46.910;6.354;2023-07-28T08:41:03;4.00;4.00;3.75
76101;PMS7003;64830;46.910;6.354;2023-07-28T08:43:30;4.50;3.50;3.00
76101;PMS7003;64830;46.910;6.354;2023-07-28T08:45:56;3.50;3.50;3.00
76101;PMS7003;64830;46.910;6.354;2023-07-28T08:48:22;4.00;4.00;3.00
76101;PMS7003;64830;46.910;6.354;2023-07-28T08:50:48;3.75;3.00;2.25
76101;PMS7003;64830;46.910;6.354;2023-07-28T08:53:14;5.75;5.25;3.00
76101;PMS7003;64830;46.910;6.354;2023-07-28T08:55:39;2.00;2.00;2.00
76101;PMS7003;64830;46.910;6.354;2023-07-28T08:58:14;4.25;3.50;3.00
76101;PMS7003;64830;46.910;6.354;2023-07-28T09:00:40;4.00;2.00;2.00
76101;PMS7003;64830;46.910;6.354;2023-07-28T09:03:08;5.00;4.00;2.25
76101;PMS7003;64830;46.910;6.354;2023-07-28T09:05:35;6.75;5.50;5.00
76101;PMS7003;64830;46.910;6.354;2023-07-28T09:08:00;5.00;5.00;4.00
76101;PMS7003;64830;46.910;6.354;2023-07-28T09:10:34;5.50;5.50;4.50
76101;PMS7003;64830;46.910;6.354;2023-07-28T09:13:14;5.00;5.00;4.00
76101;PMS7003;64830;46.910;6.354;2023-07-28T09:15:40;6.00;5.00;3.00
76101;PMS7003;64830;46.910;6.354;2023-07-28T09:18:10;4.25;4.25;3.00
76101;PMS7003;64830;46.910;6.354;2023-07-28T09:20:37;4.50;4.50;4.00
76101;PMS7003;64830;46.910;6.354;2023-07-28T09:23:04;3.00;3.00;3.00
76101;PMS7003;64830;46.910;6.354;2023-07-28T09:25:30;4.75;4.25;3.00
76101;PMS7003;64830;46.910;6.354;2023-07-28T09:27:56;4.75;4.00;3.00
76101;PMS7003;64830;46.910;6.354;2023-07-28T09:30:23;5.50;4.00;3.25
76101;PMS7003;64830;46.910;6.354;2023-07-28T09:32:49;6.00;4.50;3.00
76101;PMS7003;64830;46.910;6.354;2023-07-28T09:35:16;9.00;4.75;4.00
76101;PMS7003;64830;46.910;6.354;2023-07-28T09:37:43;6.00;5.50;4.00
76101;PMS7003;64830;46.910;6.354;2023-07-28T09:40:11;4.75;4.75;4.00
76101;PMS7003;64830;46.910;6.354;2023-07-28T09:42:41;4.25;4.25;3.75
76101;PMS7003;64830;46.910;6.354;2023-07-28T09:45:08;3.00;3.00;3.00
76101;PMS7003;64830;46.910;6.354;2023-07-28T09:47:35;9.00;8.25;5.00
76101;PMS7003;64830;46.910;6.354;2023-07-28T09:50:05;8.50;6.50;5.00
76101;PMS7003;64830;46.910;6.354;2023-07-28T09:52:34;8.25;8.00;5.25
76101;PMS7003;64830;46.910;6.354;2023-07-28T09:55:06;9.00;8.25;6.00
76101;PMS7003;64830;46.910;6.354;2023-07-28T09:57:38;8.25;8.25;7.00
76101;PMS7003;64830;46.910;6.354;2023-07-28T10:00:16;6.25;6.25;4.50
76101;PMS7003;64830;46.910;6.354;2023-07-28T10:02:44;5.00;4.00;3.50
76101;PMS7003;64830;46.910;6.354;2023-07-28T10:05:10;5.00;5.00;4.00
76101;PMS7003;64830;46.910;6.354;2023-07-28T10:07:37;5.75;5.75;4.00
76101;PMS7003;64830;46.910;6.354;2023-07-28T10:10:05;5.25;5.25;4.00
76101;PMS7003;64830;46.910;6.354;2023-07-28T10:12:42;6.00;6.00;5.00
76101;PMS7003;64830;46.910;6.354;2023-07-28T10:15:16;5.75;5.50;5.00
76101;PMS7003;64830;46.910;6.354;2023-07-28T10:17:43;6.75;5.00;4.00
76101;PMS7003;64830;46.910;6.354;2023-07-28T10:20:26;5.75;5.75;4.25
76101;PMS7003;64830;46.910;6.354;2023-07-28T10:23:20;6.50;6.00;4.50
76101;PMS7003;64830;46.910;6.354;2023-07-28T10:25:56;6.50;5.00;4.00
76101;PMS7003;64830;46.910;6.354;2023-07-28T10:30:57;5.75;5.50;4.00
76101;PMS7003;64830;46.910;6.354;2023-07-28T10:33:30;5.75;4.50;4.00
76101;PMS7003;64830;46.910;6.354;2023-07-28T10:36:32;6.00;5.75;4.75
76101;PMS7003;64830;46.910;6.354;2023-07-28T10:38:46;6.00;5.75;4.25
76101;PMS7003;64830;46.910;6.354;2023-07-28T10:41:25;6.00;5.75;4.00
76101;PMS7003;64830;46.910;6.354;2023-07-28T10:43:51;4.00;4.00;4.00
76101;PMS7003;64830;46.910;6.354;2023-07-28T10:46:20;5.50;5.00;3.25
76101;PMS7003;64830;46.910;6.354;2023-07-28T10:48:51;3.50;3.50;3.00
76101;PMS7003;64830;46.910;6.354;2023-07-28T10:51:36;4.50;4.50;3.00
76101;PMS7003;64830;46.910;6.354;2023-07-28T10:54:02;5.50;5.50;3.75
76101;PMS7003;64830;46.910;6.354;2023-07-28T10:56:30;5.00;5.00;2.75
76101;PMS7003;64830;46.910;6.354;2023-07-28T10:58:56;4.00;4.00;2.75
76101;PMS7003;64830;46.910;6.354;2023-07-28T11:01:24;7.00;7.00;4.50
76101;PMS7003;64830;46.910;6.354;2023-07-28T11:04:09;3.25;3.25;2.75
76101;PMS7003;64830;46.910;6.354;2023-07-28T11:06:35;4.00;4.00;3.25
76101;PMS7003;64830;46.910;6.354;2023-07-28T11:09:04;7.00;5.50;4.00
76101;PMS7003;64830;46.910;6.354;2023-07-28T11:11:31;6.00;5.00;5.00
76101;PMS7003;64830;46.910;6.354;2023-07-28T11:13:56;7.00;7.00;5.75
76101;PMS7003;64830;46.910;6.354;2023-07-28T11:16:23;5.00;5.00;4.25
76101;PMS7003;64830;46.910;6.354;2023-07-28T11:18:48;4.25;3.75;3.00
76101;PMS7003;64830;46.910;6.354;2023-07-28T11:21:16;7.75;6.00;4.25
76101;PMS7003;64830;46.910;6.354;2023-07-28T11:23:45;5.00;5.00;3.00
76101;PMS7003;64830;46.910;6.354;2023-07-28T11:26:14;4.00;4.00;3.25
76101;PMS7003;64830;46.910;6.354;2023-07-28T11:28:39;4.75;4.75;3.00
76101;PMS7003;64830;46.910;6.354;2023-07-28T11:31:11;10.75;8.00;5.50
76101;PMS7003;64830;46.910;6.354;2023-07-28T11:33:40;6.25;6.25;4.00
76101;PMS7003;64830;46.910;6.354;2023-07-28T11:36:05;3.25;3.25;2.50
76101;PMS7003;64830;46.910;6.354;2023-07-28T11:38:31;4.00;4.00;3.75
76101;PMS7003;64830;46.910;6.354;2023-07-28T11:40:58;4.25;4.25;3.25
76101;PMS7003;64830;46.910;6.354;2023-07-28T11:43:33;4.00;4.00;3.00
76101;PMS7003;64830;46.910;6.354;2023-07-28T11:46:24;10.00;8.00;6.00
76101;PMS7003;64830;46.910;6.354;2023-07-28T11:49:29;1.25;1.25;0.00
76101;PMS7003;64830;46.910;6.354;2023-07-28T11:51:55;4.00;4.00;3.00
76101;PMS7003;64830;46.910;6.354;2023-07-28T11:54:24;4.00;3.25;1.50
76101;PMS7003;64830;46.910;6.354;2023-07-28T11:57:03;5.75;4.25;3.25
76101;PMS7003;64830;46.910;6.354;2023-07-28T11:59:28;5.00;4.50;4.00
76101;PMS7003;64830;46.910;6.354;2023-07-28T12:02:06;3.00;3.00;2.00
76101;PMS7003;64830;46.910;6.354;2023-07-28T12:04:35;4.25;4.00;3.00
76101;PMS7003;64830;46.910;6.354;2023-07-28T12:07:18;4.75;4.25;3.25
76101;PMS7003;64830;46.910;6.354;2023-07-28T12:12:25;7.75;7.75;5.25
76101;PMS7003;64830;46.910;6.354;2023-07-28T12:14:57;9.00;7.75;6.00
76101;PMS7003;64830;46.910;6.354;2023-07-28T12:17:35;6.75;6.75;5.50
76101;PMS7003;64830;46.910;6.354;2023-07-28T12:20:05;4.25;4.25;3.00
76101;PMS7003;64830;46.910;6.354;2023-07-28T12:22:42;4.00;4.00;3.50
76101;PMS7003;64830;46.910;6.354;2023-07-28T12:25:14;7.25;7.25;5.00
76101;PMS7003;64830;46.910;6.354;2023-07-28T12:27:40;6.00;5.75;5.00
76101;PMS7003;64830;46.910;6.354;2023-07-28T12:30:05;4.50;4.50;3.00
76101;PMS7003;64830;46.910;6.354;2023-07-28T12:32:34;4.50;4.00;2.25
76101;PMS7003;64830;46.910;6.354;2023-07-28T12:35:05;12.50;11.25;8.00
76101;PMS7003;64830;46.910;6.354;2023-07-28T12:37:31;12.25;11.50;7.25
76101;PMS7003;64830;46.910;6.354;2023-07-28T12:40:02;9.25;6.50;5.00
76101;PMS7003;64830;46.910;6.354;2023-07-28T12:42:28;10.25;8.50;5.00
76101;PMS7003;64830;46.910;6.354;2023-07-28T12:45:08;6.00;6.00;5.00
76101;PMS7003;64830;46.910;6.354;2023-07-28T12:47:34;5.25;5.25;4.00
76101;PMS7003;64830;46.910;6.354;2023-07-28T12:49:59;5.50;4.00;3.50
76101;PMS7003;64830;46.910;6.354;2023-07-28T12:52:25;3.25;3.25;2.75
76101;PMS7003;64830;46.910;6.354;2023-07-28T12:54:50;7.50;6.00;3.75
76101;PMS7003;64830;46.910;6.354;2023-07-28T12:57:16;4.75;4.50;3.00
76101;PMS7003;64830;46.910;6.354;2023-07-28T12:59:41;5.25;4.50;3.75
76101;PMS7003;64830;46.910;6.354;2023-07-28T13:02:06;4.50;4.00;3.00
76101;PMS7003;64830;46.910;6.354;2023-07-28T13:04:32;0.75;0.75;0.50
76101;PMS7003;64830;46.910;6.354;2023-07-28T13:06:57;3.75;1.00;0.75
76101;PMS7003;64830;46.910;6.354;2023-07-28T13:09:23;3.50;3.50;2.00
76101;PMS7003;64830;46.910;6.354;2023-07-28T13:11:48;2.75;2.50;1.50
76101;PMS7003;64830;46.910;6.354;2023-07-28T13:14:13;5.25;4.00;3.00
76101;PMS7003;64830;46.910;6.354;2023-07-28T13:16:39;4.00;4.00;3.00
76101;PMS7003;64830;46.910;6.354;2023-07-28T13:19:04;3.50;3.50;3.25
76101;PMS7003;64830;46.910;6.354;2023-07-28T13:21:30;5.00;4.00;3.75
76101;PMS7003;64830;46.910;6.354;2023-07-28T13:23:56;3.25;3.25;3.00
76101;PMS7003;64830;46.910;6.354;2023-07-28T13:26:21;4.00;3.00;2.00
76101;PMS7003;64830;46.910;6.354;2023-07-28T13:28:47;5.50;4.25;3.25
76101;PMS7003;64830;46.910;6.354;2023-07-28T13:31:14;5.00;4.00;3.25
76101;PMS7003;64830;46.910;6.354;2023-07-28T13:33:41;3.50;3.50;2.00
76101;PMS7003;64830;46.910;6.354;2023-07-28T13:36:06;4.50;3.25;2.50
76101;PMS7003;64830;46.910;6.354;2023-07-28T13:38:34;4.50;4.00;2.25
76101;PMS7003;64830;46.910;6.354;2023-07-28T13:41:00;3.50;2.50;2.00
76101;PMS7003;64830;46.910;6.354;2023-07-28T13:43:25;4.00;4.00;3.00
76101;PMS7003;64830;46.910;6.354;2023-07-28T13:45:51;4.75;4.25;3.00
76101;PMS7003;64830;46.910;6.354;2023-07-28T13:48:16;2.25;2.00;1.00
76101;PMS7003;64830;46.910;6.354;2023-07-28T13:50:42;2.00;2.00;1.00
76101;PMS7003;64830;46.910;6.354;2023-07-28T13:53:07;1.00;1.00;0.00
76101;PMS7003;64830;46.910;6.354;2023-07-28T13:55:33;0.75;0.75;0.25
76101;PMS7003;64830;46.910;6.354;2023-07-28T13:57:58;1.25;1.00;1.00
76101;PMS7003;64830;46.910;6.354;2023-07-28T14:00:23;0.75;0.75;0.25
76101;PMS7003;64830;46.910;6.354;2023-07-28T14:02:49;1.00;1.00;1.00
76101;PMS7003;64830;46.910;6.354;2023-07-28T14:05:14;0.25;0.25;0.25
76101;PMS7003;64830;46.910;6.354;2023-07-28T14:07:40;1.00;1.00;0.50
76101;PMS7003;64830;46.910;6.354;2023-07-28T14:10:05;0.00;0.00;0.00
76101;PMS7003;64830;46.910;6.354;2023-07-28T14:12:31;2.25;2.25;1.00
76101;PMS7003;64830;46.910;6.354;2023-07-28T14:14:56;1.50;1.50;1.50
76101;PMS7003;64830;46.910;6.354;2023-07-28T14:17:22;1.25;1.25;1.00
76101;PMS7003;64830;46.910;6.354;2023-07-28T14:19:47;1.00;1.00;1.00
76101;PMS7003;64830;46.910;6.354;2023-07-28T14:22:13;4.25;2.00;1.50
76101;PMS7003;64830;46.910;6.354;2023-07-28T14:24:38;3.00;1.25;1.00
76101;PMS7003;64830;46.910;6.354;2023-07-28T14:27:04;2.00;2.00;1.00
76101;PMS7003;64830;46.910;6.354;2023-07-28T14:29:30;2.00;2.00;1.00
76101;PMS7003;64830;46.910;6.354;2023-07-28T14:31:55;2.25;2.25;2.00